Time;durP1;ratioP1;P1;durP2;ratioP2;P2;SDS_P1;SDS_P2;PMS_P1;PMS_P2;Temp;Humidity;BMP_temperature;BMP_pressure;BME280_temperature;BME280_humidity;BME280_pressure;Samples;Min_cycle;Max_cycle;Signal;HPM_P1;HPM_P2
2024/01/11 00:00:42;;;;;;;19.83;8.95;;;-2.60;70.30;;;;;;9178587;19;20041;-70
2024/01/11 00:03:50;;;;;;;27.70;9.35;;;-2.60;70.30;;;;;;9183765;19;20027;-70
2024/01/11 00:06:55;;;;;;;24.25;10.43;;;-2.60;70.30;;;;;;9177518;19;20373;-70
2024/01/11 00:10:04;;;;;;;20.17;9.07;;;-2.60;70.40;;;;;;9181500;19;20006;-71
2024/01/11 00:13:12;;;;;;;21.60;9.10;;;-2.60;70.40;;;;;;9182648;19;20033;-71
2024/01/11 00:16:20;;;;;;;23.23;8.90;;;-2.70;70.30;;;;;;9176647;19;20026;-71
2024/01/11 00:19:29;;;;;;;24.92;10.48;;;-2.60;70.40;;;;;;9182882;19;20422;-71
2024/01/11 00:22:39;;;;;;;22.35;9.32;;;-2.60;70.40;;;;;;9181714;19;20499;-70
2024/01/11 00:25:44;;;;;;;18.77;8.57;;;-2.60;70.50;;;;;;9177198;19;20529;-70
2024/01/11 00:28:57;;;;;;;20.27;8.60;;;-2.60;70.50;;;;;;9178907;19;20018;-71
2024/01/11 00:32:03;;;;;;;20.83;8.15;;;-2.60;70.50;;;;;;9183310;19;20094;-71
2024/01/11 00:35:11;;;;;;;24.92;9.95;;;-2.60;70.50;;;;;;9181054;19;20010;-71
2024/01/11 00:38:17;;;;;;;26.60;10.10;;;-2.60;70.50;;;;;;9180133;19;20029;-75
2024/01/11 00:41:28;;;;;;;20.95;8.93;;;-2.70;70.40;;;;;;9180540;19;20102;-73
2024/01/11 00:44:40;;;;;;;20.45;9.30;;;-2.70;70.40;;;;;;9182360;19;20034;-75
2024/01/11 00:47:48;;;;;;;19.95;9.80;;;-2.70;70.50;;;;;;9180933;19;20373;-72
2024/01/11 00:50:59;;;;;;;24.70;9.13;;;-2.70;70.50;;;;;;9179022;19;20018;-77
2024/01/11 00:54:06;;;;;;;25.35;10.05;;;-2.70;70.50;;;;;;9180173;19;20014;-74
2024/01/11 00:57:12;;;;;;;23.38;9.68;;;-2.70;70.60;;;;;;9179972;19;20073;-77
2024/01/11 01:00:23;;;;;;;26.73;10.35;;;-2.70;70.50;;;;;;9181484;19;20072;-73
2024/01/11 01:03:28;;;;;;;26.85;10.55;;;-2.70;70.60;;;;;;9181416;19;20030;-74
2024/01/11 01:06:36;;;;;;;24.77;9.20;;;-2.70;70.60;;;;;;9177362;19;20776;-73
2024/01/11 01:09:42;;;;;;;28.17;9.95;;;-2.70;70.60;;;;;;9180468;19;20033;-74
2024/01/11 01:12:56;;;;;;;23.55;9.93;;;-2.70;70.70;;;;;;9176223;19;20017;-73
2024/01/11 01:16:07;;;;;;;22.05;9.30;;;-2.70;70.70;;;;;;9174350;19;20006;-73
2024/01/11 01:19:15;;;;;;;24.75;9.50;;;-2.70;70.60;;;;;;9178527;19;20368;-73
2024/01/11 01:22:21;;;;;;;25.17;10.30;;;-2.70;70.60;;;;;;9180254;19;20022;-73
2024/01/11 01:25:29;;;;;;;23.95;10.38;;;-2.70;70.70;;;;;;9178416;19;20015;-73
2024/01/11 01:28:34;;;;;;;26.13;9.75;;;-2.80;70.60;;;;;;9179676;19;20022;-74
2024/01/11 01:31:44;;;;;;;20.48;9.80;;;-2.80;70.70;;;;;;9181503;19;20026;-74
2024/01/11 01:34:50;;;;;;;24.48;9.88;;;-2.80;70.70;;;;;;9177370;19;20014;-75
2024/01/11 01:37:58;;;;;;;26.40;9.30;;;-2.80;70.70;;;;;;9181141;19;20029;-75
2024/01/11 01:41:05;;;;;;;23.42;9.30;;;-2.90;70.70;;;;;;9179271;19;20022;-74
2024/01/11 01:44:13;;;;;;;21.40;9.48;;;-2.90;70.70;;;;;;9177720;19;20015;-72
2024/01/11 01:47:21;;;;;;;22.65;10.18;;;-2.90;70.70;;;;;;9178236;19;20022;-74
2024/01/11 01:50:29;;;;;;;23.40;9.65;;;-3.00;70.70;;;;;;9179596;19;20015;-69
2024/01/11 01:53:36;;;;;;;23.05;10.32;;;-3.00;70.70;;;;;;9178104;19;20013;-71
2024/01/11 01:56:44;;;;;;;24.58;10.18;;;-3.00;70.80;;;;;;9179284;19;20006;-69
2024/01/11 01:59:53;;;;;;;22.15;9.32;;;-3.00;70.80;;;;;;9177598;19;20022;-68
2024/01/11 02:03:03;;;;;;;22.70;10.38;;;-3.00;70.80;;;;;;9178912;19;20480;-68
2024/01/11 02:06:10;;;;;;;24.05;10.30;;;-3.00;70.90;;;;;;9175588;19;20619;-70
2024/01/11 02:09:18;;;;;;;25.83;10.52;;;-3.00;70.90;;;;;;9178437;19;20014;-70
2024/01/11 02:12:24;;;;;;;22.85;9.60;;;-3.00;70.90;;;;;;9177865;19;20085;-69
2024/01/11 02:15:32;;;;;;;28.75;10.43;;;-3.00;70.90;;;;;;9173459;19;20018;-69
2024/01/11 02:18:40;;;;;;;23.25;10.07;;;-3.00;71.00;;;;;;9177331;19;20354;-71
2024/01/11 02:21:52;;;;;;;24.73;10.18;;;-3.00;71.00;;;;;;9179349;19;20500;-71
2024/01/11 02:25:00;;;;;;;26.63;10.55;;;-3.00;70.90;;;;;;9174769;19;20025;-73
2024/01/11 02:28:08;;;;;;;30.45;9.90;;;-3.00;71.00;;;;;;9172152;19;20022;-69
2024/01/11 02:31:15;;;;;;;24.88;10.60;;;-3.00;71.60;;;;;;9177022;19;20011;-69
2024/01/11 02:34:23;;;;;;;26.27;9.65;;;-3.00;71.00;;;;;;9177830;19;20086;-70
2024/01/11 02:37:29;;;;;;;28.17;10.52;;;-3.10;70.90;;;;;;9175395;19;20018;-70
2024/01/11 02:40:41;;;;;;;23.70;10.30;;;-3.10;70.90;;;;;;9173139;19;20026;-71
2024/01/11 02:43:49;;;;;;;21.67;9.95;;;-3.10;70.90;;;;;;9176355;19;20010;-69
2024/01/11 02:46:57;;;;;;;31.58;10.30;;;-3.10;71.00;;;;;;9175304;19;20408;-71
2024/01/11 02:50:03;;;;;;;26.13;10.73;;;-3.10;71.60;;;;;;9173672;19;20013;-70
2024/01/11 02:53:34;;;;;;;28.40;10.10;;;-3.10;71.00;;;;;;9174508;19;20064;-70
2024/01/11 02:56:54;;;;;;;26.48;10.68;;;-3.10;71.10;;;;;;9171679;19;20507;-68
2024/01/11 03:00:03;;;;;;;22.65;10.00;;;-3.10;71.10;;;;;;9174752;19;20476;-70
2024/01/11 03:03:19;;;;;;;;;;;;;;;;;;;;;
2024/01/11 03:06:27;;;;;;;24.77;10.93;;;-3.20;71.10;;;;;;9173848;19;20022;-69
2024/01/11 03:09:34;;;;;;;24.50;10.63;;;-3.20;71.10;;;;;;9173742;19;20014;-70
2024/01/11 03:12:46;;;;;;;21.15;9.65;;;-3.20;71.10;;;;;;9175731;19;20680;-70
2024/01/11 03:15:55;;;;;;;26.75;12.13;;;-3.20;71.10;;;;;;9168567;19;20022;-71
2024/01/11 03:19:09;;;;;;;24.63;10.52;;;-3.20;71.10;;;;;;9176738;19;20365;-71
2024/01/11 03:22:14;;;;;;;23.52;10.85;;;-3.20;71.10;;;;;;9175482;19;20074;-72
2024/01/11 03:25:22;;;;;;;30.10;10.93;;;-3.20;71.10;;;;;;9173527;19;20034;-71
2024/01/11 03:28:34;;;;;;;26.27;11.68;;;-3.20;71.20;;;;;;9173811;19;20018;-71
2024/01/11 03:31:45;;;;;;;22.90;10.48;;;-3.20;71.20;;;;;;9172544;19;20018;-71
2024/01/11 03:34:50;;;;;;;25.42;10.57;;;-3.20;71.20;;;;;;9172352;19;20019;-71
2024/01/11 03:37:58;;;;;;;25.35;10.82;;;-3.30;71.20;;;;;;9173212;19;20018;-72
2024/01/11 03:41:11;;;;;;;25.95;10.38;;;-3.30;71.80;;;;;;9173476;19;20529;-71
2024/01/11 03:44:21;;;;;;;22.90;11.27;;;-3.30;71.20;;;;;;9173636;19;20393;-71
2024/01/11 03:47:29;;;;;;;23.95;10.32;;;-3.30;71.20;;;;;;9171910;19;20029;-71
2024/01/11 03:50:37;;;;;;;25.80;10.82;;;-3.30;71.20;;;;;;9175024;19;20057;-72
2024/01/11 03:53:42;;;;;;;23.70;11.02;;;-3.30;71.30;;;;;;9174018;19;20839;-70
2024/01/11 03:56:50;;;;;;;33.00;11.65;;;-3.30;71.30;;;;;;9167644;19;20019;-71
2024/01/11 03:59:59;;;;;;;27.58;10.90;;;-3.40;71.30;;;;;;9172977;19;20022;-70
2024/01/11 04:03:08;;;;;;;24.17;10.98;;;-3.40;71.20;;;;;;9171847;19;20010;-71
2024/01/11 04:06:23;;;;;;;28.65;11.40;;;-3.40;71.30;;;;;;9170227;19;20018;-71
2024/01/11 04:09:31;;;;;;;26.63;11.73;;;-3.40;71.30;;;;;;9170181;19;20038;-71
2024/01/11 04:12:37;;;;;;;21.45;10.43;;;-3.40;71.30;;;;;;9172419;19;20026;-70
2024/01/11 04:15:47;;;;;;;31.88;11.88;;;-3.40;71.40;;;;;;9169353;19;20021;-70
2024/01/11 04:18:53;;;;;;;26.83;11.25;;;-3.40;71.40;;;;;;9173683;19;20029;-70
2024/01/11 04:22:00;;;;;;;26.00;12.10;;;-3.40;71.40;;;;;;9173724;19;20028;-70
2024/01/11 04:25:07;;;;;;;30.63;12.40;;;-3.40;71.40;;;;;;9170450;19;20041;-71
2024/01/11 04:28:15;;;;;;;26.90;11.02;;;-3.40;71.40;;;;;;9169689;19;20465;-71
2024/01/11 04:31:23;;;;;;;23.38;10.38;;;-3.40;71.50;;;;;;9171400;19;20021;-71
2024/01/11 04:34:30;;;;;;;29.23;11.60;;;-3.40;71.40;;;;;;9173089;19;20006;-71
2024/01/11 04:37:37;;;;;;;28.15;12.43;;;-3.50;71.30;;;;;;9169273;19;20018;-70
2024/01/11 04:40:44;;;;;;;30.73;13.13;;;-3.50;72.00;;;;;;9169933;19;20011;-71
2024/01/11 04:43:51;;;;;;;31.88;11.90;;;-3.50;71.30;;;;;;9172217;19;20021;-69
2024/01/11 04:47:01;;;;;;;31.73;12.27;;;-3.50;71.40;;;;;;9174309;19;20014;-71
2024/01/11 04:50:08;;;;;;;27.33;11.90;;;-3.50;71.40;;;;;;9178950;19;20033;-72
2024/01/11 04:53:19;;;;;;;28.23;11.80;;;-3.50;71.50;;;;;;9175924;19;20049;-72
2024/01/11 04:56:25;;;;;;;30.98;12.35;;;-3.50;71.40;;;;;;9181893;19;20014;-70
2024/01/11 04:59:32;;;;;;;31.63;12.88;;;-3.60;71.40;;;;;;9182513;19;20014;-70
2024/01/11 05:02:40;;;;;;;24.58;11.82;;;-3.60;71.40;;;;;;9179829;19;20029;-70
2024/01/11 05:05:48;;;;;;;24.05;11.18;;;-3.60;71.50;;;;;;9179948;19;20014;-71
2024/01/11 05:08:58;;;;;;;30.73;12.48;;;-3.60;71.40;;;;;;9177823;19;20021;-72
2024/01/11 05:12:07;;;;;;;30.90;12.52;;;-3.70;71.50;;;;;;9177992;19;20342;-71
2024/01/11 05:15:14;;;;;;;33.42;12.30;;;-3.60;71.50;;;;;;9176464;19;20014;-70
2024/01/11 05:18:24;;;;;;;24.67;12.20;;;-3.70;71.50;;;;;;9177550;19;20011;-71
2024/01/11 05:21:30;;;;;;;28.52;12.25;;;-3.70;71.40;;;;;;9178723;19;20010;-72
2024/01/11 05:24:38;;;;;;;28.42;12.50;;;-3.70;71.50;;;;;;9179234;19;20018;-71
2024/01/11 05:27:44;;;;;;;35.95;13.55;;;-3.70;71.50;;;;;;9177720;19;20029;-71
2024/01/11 05:30:54;;;;;;;29.38;12.63;;;-3.70;71.60;;;;;;9178641;19;20405;-72
2024/01/11 05:34:03;;;;;;;33.33;13.02;;;-3.70;71.60;;;;;;9176774;19;20196;-72
2024/01/11 05:37:11;;;;;;;29.55;13.43;;;-3.80;71.50;;;;;;9175596;19;20014;-71
2024/01/11 05:40:21;;;;;;;27.52;12.70;;;-3.80;71.60;;;;;;9177144;19;20488;-71
2024/01/11 05:43:29;;;;;;;30.42;12.57;;;-3.80;71.60;;;;;;9175527;19;20013;-70
2024/01/11 05:46:34;;;;;;;28.63;12.63;;;-3.80;71.60;;;;;;9176146;19;20373;-70
2024/01/11 05:49:45;;;;;;;29.52;13.18;;;-3.80;71.60;;;;;;9175179;19;20022;-70
2024/01/11 05:52:50;;;;;;;31.95;14.30;;;-3.80;71.60;;;;;;9177001;19;20817;-72
2024/01/11 05:55:58;;;;;;;37.53;14.38;;;-3.80;71.70;;;;;;9177996;19;20010;-73
2024/01/11 05:59:04;;;;;;;34.63;13.10;;;-3.80;71.70;;;;;;9176066;19;20724;-71
2024/01/11 06:02:12;;;;;;;34.13;12.95;;;-3.80;71.70;;;;;;9176182;19;20029;-71
2024/01/11 06:05:20;;;;;;;33.40;13.20;;;-3.80;71.80;;;;;;9178543;19;20017;-70
2024/01/11 06:08:28;;;;;;;31.15;13.18;;;-3.80;71.80;;;;;;9171659;19;20014;-70
2024/01/11 06:11:33;;;;;;;32.97;13.43;;;-3.80;71.80;;;;;;9176564;19;20010;-70
2024/01/11 06:14:41;;;;;;;26.67;13.07;;;-3.80;71.80;;;;;;9171072;19;20010;-71
2024/01/11 06:17:46;;;;;;;34.42;14.10;;;-3.80;72.40;;;;;;9174421;19;20491;-71
2024/01/11 06:20:57;;;;;;;30.45;13.45;;;-3.80;71.90;;;;;;9176400;19;20010;-71
2024/01/11 06:24:03;;;;;;;29.80;13.68;;;-3.80;71.90;;;;;;9175964;19;20018;-70
2024/01/11 06:27:10;;;;;;;31.73;14.30;;;-3.80;71.90;;;;;;9178044;19;20025;-72
2024/01/11 06:30:17;;;;;;;34.67;14.43;;;-3.80;71.90;;;;;;9174825;19;20026;-70
2024/01/11 06:33:25;;;;;;;29.77;13.15;;;-3.80;71.90;;;;;;9172714;19;20018;-71
2024/01/11 06:36:33;;;;;;;35.13;14.07;;;-3.80;71.90;;;;;;9174652;19;20022;-71
2024/01/11 06:39:41;;;;;;;36.08;14.52;;;-3.80;72.50;;;;;;9176176;19;20015;-71
2024/01/11 06:42:47;;;;;;;31.27;13.45;;;-3.80;71.90;;;;;;9173012;19;20018;-70
2024/01/11 06:45:55;;;;;;;35.53;14.95;;;-3.80;72.00;;;;;;9174034;19;20032;-72
2024/01/11 06:49:01;;;;;;;33.30;16.13;;;-3.80;72.60;;;;;;9175731;19;20074;-74
2024/01/11 06:52:12;;;;;;;33.22;14.27;;;-3.80;72.00;;;;;;9175034;19;20014;-70
2024/01/11 06:55:18;;;;;;;29.10;13.65;;;-3.80;72.00;;;;;;9174484;19;20395;-71
2024/01/11 06:58:25;;;;;;;32.67;14.45;;;-3.80;72.00;;;;;;9173667;19;20011;-70
2024/01/11 07:01:31;;;;;;;36.83;14.35;;;-3.80;72.00;;;;;;9173006;19;20022;-70
2024/01/11 07:04:38;;;;;;;34.78;14.73;;;-3.80;72.10;;;;;;9171821;19;20469;-71
2024/01/11 07:07:47;;;;;;;35.25;14.75;;;-3.80;72.10;;;;;;9169783;19;20026;-70
2024/01/11 07:10:54;;;;;;;30.25;13.35;;;-3.80;72.10;;;;;;9167717;19;20019;-70
2024/01/11 07:14:00;;;;;;;37.22;15.55;;;-3.80;72.10;;;;;;9169619;19;20018;-71
2024/01/11 07:17:07;;;;;;;41.60;18.35;;;-3.80;72.10;;;;;;9171876;19;20025;-70
2024/01/11 07:20:16;;;;;;;45.03;19.42;;;-3.80;72.10;;;;;;9173333;19;20014;-71
2024/01/11 07:23:27;;;;;;;41.40;18.13;;;-3.80;72.10;;;;;;9171032;19;20014;-71
2024/01/11 07:26:32;;;;;;;39.85;18.27;;;-3.80;72.10;;;;;;9173553;19;20041;-71
2024/01/11 07:29:41;;;;;;;45.83;18.17;;;-3.80;72.10;;;;;;9171122;19;20013;-70
2024/01/11 07:32:47;;;;;;;35.88;16.63;;;-3.80;72.10;;;;;;9173643;19;20086;-69
2024/01/11 07:35:55;;;;;;;38.65;17.58;;;-3.80;72.20;;;;;;9173447;19;20019;-72
2024/01/11 07:39:10;;;;;;;35.97;16.88;;;-3.80;72.10;;;;;;9172511;19;20026;-72
2024/01/11 07:42:20;;;;;;;36.60;16.98;;;-3.80;72.20;;;;;;9168310;19;20025;-73
2024/01/11 07:45:26;;;;;;;36.20;16.20;;;-3.80;72.20;;;;;;9173540;19;20015;-73
2024/01/11 07:48:43;;;;;;;42.53;18.98;;;-3.80;72.20;;;;;;9173052;19;20015;-73
2024/01/11 07:51:50;;;;;;;41.38;18.33;;;-3.80;72.20;;;;;;9166565;19;20022;-72
2024/01/11 07:55:07;;;;;;;39.17;17.85;;;-3.70;72.30;;;;;;9172005;19;20014;-72
2024/01/11 07:58:13;;;;;;;44.45;19.05;;;-3.70;72.40;;;;;;9170259;19;20011;-72
2024/01/11 08:01:20;;;;;;;45.78;19.60;;;-3.70;72.90;;;;;;9169104;19;20025;-73
2024/01/11 08:04:26;;;;;;;41.53;19.27;;;-3.70;72.30;;;;;;9174273;19;20016;-72
2024/01/11 08:07:34;;;;;;;46.25;20.23;;;-3.70;72.40;;;;;;9170100;19;20018;-72
2024/01/11 08:10:43;;;;;;;43.10;19.38;;;-3.70;72.40;;;;;;9171685;19;20018;-72
2024/01/11 08:13:50;;;;;;;53.47;19.90;;;-3.70;72.40;;;;;;9172350;19;20017;-72
2024/01/11 08:16:56;;;;;;;48.75;20.70;;;-3.70;72.40;;;;;;9166237;19;20031;-73
2024/01/11 08:20:04;;;;;;;47.65;20.65;;;-3.70;72.50;;;;;;9170701;19;20010;-72
2024/01/11 08:23:10;;;;;;;47.75;19.40;;;-3.70;72.50;;;;;;9179001;19;20577;-73
2024/01/11 08:26:21;;;;;;;51.05;21.35;;;-3.70;72.50;;;;;;9181591;19;20057;-72
2024/01/11 08:29:27;;;;;;;43.20;18.58;;;-3.70;72.50;;;;;;9177939;19;20014;-72
2024/01/11 08:32:38;;;;;;;47.75;19.90;;;-3.60;72.60;;;;;;9179447;19;20025;-72
2024/01/11 08:35:45;;;;;;;54.42;19.45;;;-3.60;72.60;;;;;;9179453;19;20029;-73
2024/01/11 08:38:53;;;;;;;54.70;21.65;;;-3.60;72.60;;;;;;9176070;19;20022;-72
2024/01/11 08:42:01;;;;;;;64.47;20.80;;;-3.50;72.70;;;;;;9180997;19;20025;-72
2024/01/11 08:45:17;;;;;;;59.58;20.83;;;-3.50;72.80;;;;;;9180837;19;20015;-73
2024/01/11 08:48:23;;;;;;;52.10;20.10;;;-3.50;72.70;;;;;;9180616;19;20018;-72
2024/01/11 08:51:32;;;;;;;56.72;20.27;;;-3.40;72.80;;;;;;9174325;19;20030;-72
2024/01/11 08:54:37;;;;;;;56.53;20.35;;;-3.40;72.90;;;;;;9179549;19;20010;-72
2024/01/11 08:57:47;;;;;;;50.55;19.67;;;-3.30;73.00;;;;;;9177999;19;20476;-72
2024/01/11 09:00:53;;;;;;;53.65;19.15;;;-3.30;72.90;;;;;;9179315;19;20519;-72
2024/01/11 09:04:01;;;;;;;71.15;21.98;;;-3.30;73.00;;;;;;9176196;19;20011;-72
2024/01/11 09:07:06;;;;;;;102.00;35.60;;;-3.20;73.60;;;;;;9174780;19;20026;-72
2024/01/11 09:10:15;;;;;;;86.53;29.58;;;-3.10;73.10;;;;;;9178521;19;20107;-76
2024/01/11 09:13:25;;;;;;;73.25;25.85;;;-3.10;73.10;;;;;;9178615;19;20011;-73
2024/01/11 09:16:33;;;;;;;77.28;26.85;;;-3.00;73.30;;;;;;9173894;19;20025;-73
2024/01/11 09:19:39;;;;;;;66.18;23.00;;;-2.90;73.30;;;;;;9178752;19;20484;-71
2024/01/11 09:22:48;;;;;;;71.97;23.63;;;-2.90;73.30;;;;;;9178151;19;20363;-71
2024/01/11 09:25:54;;;;;;;63.83;22.92;;;-2.80;73.40;;;;;;9179043;19;20014;-72
2024/01/11 09:29:04;;;;;;;63.17;23.05;;;-2.80;73.40;;;;;;9179121;19;20018;-72
2024/01/11 09:32:10;;;;;;;61.38;22.75;;;-2.70;73.50;;;;;;9176643;19;20033;-72
2024/01/11 09:35:18;;;;;;;64.55;20.77;;;-2.60;73.60;;;;;;9175105;19;20742;-72
2024/01/11 09:38:23;;;;;;;61.50;20.88;;;-2.50;73.60;;;;;;9178472;19;20375;-71
2024/01/11 09:41:33;;;;;;;61.83;21.00;;;-2.50;73.60;;;;;;9177166;19;20098;-72
2024/01/11 09:44:42;;;;;;;54.65;20.80;;;-2.40;73.70;;;;;;9174630;19;20377;-71
2024/01/11 09:47:52;;;;;;;61.85;24.17;;;-2.30;73.70;;;;;;9176655;19;20817;-71
2024/01/11 09:51:00;;;;;;;73.00;25.77;;;-2.30;73.80;;;;;;9177868;19;20007;-71
2024/01/11 09:54:09;;;;;;;67.32;23.27;;;-2.20;73.80;;;;;;9177935;19;20052;-72
2024/01/11 09:57:16;;;;;;;63.30;21.17;;;-2.10;73.80;;;;;;9178316;19;20536;-72
2024/01/11 10:00:27;;;;;;;61.33;22.00;;;-2.00;73.90;;;;;;9178303;19;20483;-68
2024/01/11 10:03:33;;;;;;;69.40;22.42;;;-2.00;73.90;;;;;;9178295;19;20040;-70
2024/01/11 10:06:41;;;;;;;70.28;21.45;;;-1.90;74.00;;;;;;9178382;19;20029;-69
2024/01/11 10:09:47;;;;;;;61.92;20.08;;;-1.90;74.00;;;;;;9174139;19;20019;-69
2024/01/11 10:12:55;;;;;;;62.95;20.67;;;-1.80;74.10;;;;;;9173493;19;20043;-70
2024/01/11 10:16:15;;;;;;;55.75;20.83;;;-1.70;74.10;;;;;;9169879;19;20362;-72
2024/01/11 10:19:22;;;;;;;65.90;21.10;;;-1.70;74.20;;;;;;9176020;19;20006;-70
2024/01/11 10:22:28;;;;;;;63.33;21.52;;;-1.60;74.20;;;;;;9173790;19;20520;-71
2024/01/11 10:25:36;;;;;;;67.00;21.73;;;-1.60;74.20;;;;;;9177969;19;20006;-73
2024/01/11 10:28:41;;;;;;;74.97;21.67;;;-1.50;74.30;;;;;;9177067;19;20090;-70
2024/01/11 10:31:52;;;;;;;71.03;22.30;;;-1.40;75.00;;;;;;9174548;19;20370;-71
2024/01/11 10:35:00;;;;;;;65.43;20.95;;;-1.30;74.40;;;;;;9175219;19;20019;-71
2024/01/11 10:38:12;;;;;;;71.10;21.35;;;-1.30;74.30;;;;;;9176722;19;20729;-71
2024/01/11 10:41:22;;;;;;;71.15;21.25;;;-1.20;75.00;;;;;;9175030;19;20500;-71
2024/01/11 10:44:31;;;;;;;67.90;21.73;;;-1.10;74.40;;;;;;9170906;19;20030;-72
2024/01/11 10:47:41;;;;;;;61.58;20.42;;;-1.00;74.50;;;;;;9173378;19;20516;-70
2024/01/11 10:50:51;;;;;;;63.28;20.70;;;-1.00;74.50;;;;;;9171845;19;20513;-70
2024/01/11 10:53:58;;;;;;;66.55;21.25;;;-0.90;74.50;;;;;;9171834;19;20029;-71
2024/01/11 10:57:07;;;;;;;63.05;21.40;;;-0.90;74.50;;;;;;9173394;19;20022;-72
2024/01/11 11:00:13;;;;;;;76.80;22.73;;;-0.80;74.60;;;;;;9174288;19;20018;-71
2024/01/11 11:03:26;;;;;;;61.65;20.95;;;-0.70;74.60;;;;;;9171054;19;20022;-69
2024/01/11 11:06:35;;;;;;;60.50;19.20;;;-0.70;74.60;;;;;;9171043;19;20014;-70
2024/01/11 11:09:45;;;;;;;70.07;20.38;;;-0.60;74.70;;;;;;9173470;19;20022;-75
2024/01/11 11:12:52;;;;;;;64.55;20.00;;;-0.60;75.40;;;;;;9172934;19;20064;-73
2024/01/11 11:15:59;;;;;;;62.08;20.73;;;-0.50;74.80;;;;;;9170122;19;20026;-73
2024/01/11 11:19:09;;;;;;;60.88;20.75;;;-0.40;74.80;;;;;;9175543;19;20123;-71
2024/01/11 11:22:19;;;;;;;72.75;25.02;;;-0.40;74.80;;;;;;9174533;19;20025;-72
2024/01/11 11:25:27;;;;;;;66.95;21.15;;;-0.30;74.90;;;;;;9173738;19;20022;-72
2024/01/11 11:28:36;;;;;;;73.78;22.90;;;-0.30;74.90;;;;;;9174806;19;20034;-72
2024/01/11 11:31:47;;;;;;;78.28;22.90;;;-0.20;75.00;;;;;;9168656;19;20026;-71
2024/01/11 11:34:58;;;;;;;77.10;23.02;;;-0.20;75.00;;;;;;9172250;19;20014;-72
2024/01/11 11:38:05;;;;;;;73.05;23.23;;;-0.10;75.00;;;;;;9172949;19;20014;-72
2024/01/11 11:41:14;;;;;;;72.28;21.40;;;0.00;75.10;;;;;;9172505;19;20014;-72
2024/01/11 11:44:20;;;;;;;69.20;23.10;;;0.10;75.10;;;;;;9170349;19;20030;-71
2024/01/11 11:47:34;;;;;;;63.40;21.35;;;0.10;75.20;;;;;;9170085;19;20492;-68
2024/01/11 11:50:43;;;;;;;61.30;22.40;;;0.20;75.20;;;;;;9172510;19;20011;-71
2024/01/11 11:53:52;;;;;;;66.32;21.88;;;0.30;75.30;;;;;;9170894;19;20369;-73
2024/01/11 11:56:58;;;;;;;64.47;23.13;;;0.30;75.40;;;;;;9180733;19;20017;-70
2024/01/11 12:00:07;;;;;;;62.95;21.67;;;0.40;75.30;;;;;;9190456;19;20018;-74
2024/01/11 12:03:22;;;;;;;71.72;23.92;;;0.40;75.30;;;;;;9188108;19;20010;-74
2024/01/11 12:06:36;;;;;;;59.28;20.30;;;0.50;75.40;;;;;;9186524;19;20019;-76
2024/01/11 12:09:41;;;;;;;47.67;16.88;;;0.50;75.40;;;;;;9190845;19;20014;-75
2024/01/11 12:12:50;;;;;;;56.20;19.85;;;0.60;75.40;;;;;;9189870;19;20018;-76
2024/01/11 12:15:59;;;;;;;48.38;17.45;;;0.70;75.50;;;;;;9174335;19;20022;-76
2024/01/11 12:19:10;;;;;;;50.90;17.77;;;0.70;75.50;;;;;;9187152;19;20018;-73
2024/01/11 12:22:19;;;;;;;60.47;18.45;;;0.80;75.50;;;;;;9187587;19;20033;-74
2024/01/11 12:25:30;;;;;;;59.47;19.25;;;0.80;75.60;;;;;;9188447;19;20037;-76
2024/01/11 12:28:36;;;;;;;53.25;17.15;;;0.90;75.60;;;;;;9190909;19;20026;-74
2024/01/11 12:31:43;;;;;;;39.60;16.60;;;0.90;75.50;;;;;;9188339;19;20021;-75
2024/01/11 12:34:49;;;;;;;49.88;17.30;;;1.00;75.60;;;;;;9191357;19;20058;-75
2024/01/11 12:38:04;;;;;;;49.42;18.25;;;1.00;75.60;;;;;;9186523;19;20025;-75
2024/01/11 12:41:10;;;;;;;45.45;18.40;;;1.10;76.30;;;;;;9189300;19;20446;-76
2024/01/11 12:44:19;;;;;;;48.67;16.95;;;1.10;75.70;;;;;;9189191;19;20022;-76
2024/01/11 12:47:34;;;;;;;59.58;17.33;;;1.10;75.60;;;;;;9186587;19;20027;-76
2024/01/11 12:50:45;;;;;;;43.10;15.52;;;1.20;75.80;;;;;;9188924;19;20014;-75
2024/01/11 12:53:55;;;;;;;45.90;16.55;;;1.20;75.80;;;;;;9184262;19;20028;-75
2024/01/11 12:57:04;;;;;;;45.17;17.08;;;1.30;75.80;;;;;;9189856;19;20014;-76
2024/01/11 13:00:16;;;;;;;46.30;16.10;;;1.30;75.80;;;;;;9188043;19;20025;-75
2024/01/11 13:03:28;;;;;;;43.63;16.35;;;1.40;76.50;;;;;;9188929;19;20037;-74
2024/01/11 13:06:34;;;;;;;44.35;17.17;;;1.40;75.90;;;;;;9188556;19;20106;-76
2024/01/11 13:09:49;;;;;;;48.35;16.95;;;1.50;75.90;;;;;;9178476;19;20022;-75
2024/01/11 13:13:04;;;;;;;58.60;18.50;;;1.50;75.90;;;;;;9176746;19;20077;-75
2024/01/11 13:16:19;;;;;;;45.63;16.15;;;1.60;76.00;;;;;;9175941;19;20513;-75
2024/01/11 13:19:25;;;;;;;49.20;16.50;;;1.60;76.00;;;;;;9178236;19;20030;-76
2024/01/11 13:22:36;;;;;;;49.17;17.77;;;1.60;76.10;;;;;;9176261;19;20642;-75
2024/01/11 13:25:49;;;;;;;41.83;16.00;;;1.70;76.10;;;;;;9177439;19;20025;-76
2024/01/11 13:28:59;;;;;;;42.10;15.90;;;1.70;76.10;;;;;;9180060;19;20019;-76
2024/01/11 13:32:04;;;;;;;45.55;17.23;;;1.80;76.00;;;;;;9178895;19;20030;-77
2024/01/11 13:35:12;;;;;;;38.17;16.15;;;1.80;76.10;;;;;;9180138;19;20039;-76
2024/01/11 13:38:20;;;;;;;43.65;16.20;;;1.90;76.10;;;;;;9177054;19;20022;-76
2024/01/11 13:41:40;;;;;;;42.58;14.98;;;1.90;76.10;;;;;;9178065;19;20029;-76
2024/01/11 13:44:47;;;;;;;42.90;15.15;;;1.90;76.00;;;;;;9175294;19;20396;-77
2024/01/11 13:47:56;;;;;;;42.28;15.68;;;2.00;76.70;;;;;;9175968;19;20014;-76
2024/01/11 13:51:04;;;;;;;41.25;14.95;;;2.00;76.20;;;;;;9176284;19;20015;-76
2024/01/11 13:54:12;;;;;;;43.38;16.45;;;2.00;76.10;;;;;;9174376;19;20357;-75
2024/01/11 13:57:20;;;;;;;38.53;14.45;;;2.00;76.10;;;;;;9178856;19;20018;-77
2024/01/11 14:00:29;;;;;;;37.47;15.25;;;2.00;76.20;;;;;;9176953;19;20010;-77
2024/01/11 14:03:34;;;;;;;41.75;15.45;;;2.00;76.10;;;;;;9177901;19;20641;-76
2024/01/11 14:06:42;;;;;;;41.92;14.20;;;2.00;76.20;;;;;;9175770;19;20015;-77
2024/01/11 14:09:48;;;;;;;38.45;13.68;;;2.10;76.20;;;;;;9173928;19;20037;-76
2024/01/11 14:12:58;;;;;;;42.33;14.88;;;2.10;76.30;;;;;;9176872;19;20026;-77
2024/01/11 14:16:04;;;;;;;37.28;14.75;;;2.10;76.30;;;;;;9173368;19;20017;-75
2024/01/11 14:19:11;;;;;;;39.92;16.23;;;2.10;76.30;;;;;;9177101;19;20029;-77
2024/01/11 14:22:17;;;;;;;47.83;18.00;;;2.10;76.30;;;;;;9176018;19;20010;-76
2024/01/11 14:25:30;;;;;;;42.67;16.10;;;2.10;76.20;;;;;;9176384;19;20030;-77
2024/01/11 14:28:42;;;;;;;44.75;16.60;;;2.10;76.20;;;;;;9177331;19;20027;-75
2024/01/11 14:31:50;;;;;;;36.88;14.95;;;2.10;76.20;;;;;;9177401;19;20021;-74
2024/01/11 14:34:56;;;;;;;43.38;15.55;;;2.10;76.20;;;;;;9174575;19;20595;-75
2024/01/11 14:38:04;;;;;;;41.00;15.10;;;2.10;76.30;;;;;;9177352;19;20019;-75
2024/01/11 14:41:09;;;;;;;38.33;15.35;;;2.10;76.30;;;;;;9175866;19;20018;-74
2024/01/11 14:44:20;;;;;;;42.55;15.65;;;2.10;76.30;;;;;;9175884;19;20026;-76
2024/01/11 14:47:28;;;;;;;43.88;16.60;;;2.10;76.40;;;;;;9176836;19;20018;-75
2024/01/11 14:50:36;;;;;;;47.28;17.15;;;2.10;76.50;;;;;;9175131;19;20371;-74
2024/01/11 14:53:42;;;;;;;45.28;16.60;;;2.10;76.50;;;;;;9176275;19;20422;-74
2024/01/11 14:56:50;;;;;;;51.67;17.20;;;2.10;76.60;;;;;;9175092;19;20025;-74
2024/01/11 14:59:58;;;;;;;51.20;17.92;;;2.10;76.60;;;;;;9174575;19;20360;-75
2024/01/11 15:03:06;;;;;;;44.08;16.92;;;2.10;76.70;;;;;;9174548;19;20476;-75
2024/01/11 15:06:12;;;;;;;49.38;18.08;;;2.10;76.70;;;;;;9171624;19;20436;-75
2024/01/11 15:09:20;;;;;;;43.05;16.65;;;2.10;76.70;;;;;;9175851;19;20050;-74
2024/01/11 15:12:26;;;;;;;48.95;17.55;;;2.00;76.70;;;;;;9175293;19;20024;-76
2024/01/11 15:15:36;;;;;;;40.38;15.40;;;2.10;76.70;;;;;;9172991;19;20352;-75
2024/01/11 15:18:46;;;;;;;38.13;16.23;;;2.10;76.70;;;;;;9173773;19;20015;-75
2024/01/11 15:21:54;;;;;;;38.28;15.65;;;2.10;76.70;;;;;;9174014;19;20480;-75
2024/01/11 15:24:59;;;;;;;39.53;13.90;;;2.10;76.70;;;;;;9175704;19;20010;-75
2024/01/11 15:28:07;;;;;;;40.35;13.45;;;2.10;77.30;;;;;;9174769;19;20032;-73
2024/01/11 15:31:15;;;;;;;31.60;13.18;;;2.10;76.70;;;;;;9174217;19;20022;-73
2024/01/11 15:34:23;;;;;;;32.38;14.38;;;2.10;76.70;;;;;;9170489;19;20361;-74
2024/01/11 15:37:28;;;;;;;44.58;14.52;;;2.10;76.70;;;;;;9172360;19;20024;-74
2024/01/11 15:40:36;;;;;;;41.83;14.80;;;2.00;76.60;;;;;;9171150;19;20423;-76
2024/01/11 15:43:50;;;;;;;38.67;14.20;;;2.10;76.80;;;;;;9173492;19;20014;-75
2024/01/11 15:47:00;;;;;;;42.40;14.50;;;2.10;76.80;;;;;;9176616;19;20014;-77
2024/01/11 15:50:08;;;;;;;42.83;14.88;;;2.00;76.80;;;;;;9176386;19;20022;-75
2024/01/11 15:53:15;;;;;;;40.70;15.68;;;2.00;76.80;;;;;;9177622;19;20078;-75
2024/01/11 15:56:21;;;;;;;36.72;13.05;;;2.00;76.80;;;;;;9175784;19;20014;-73
2024/01/11 15:59:28;;;;;;;42.80;14.10;;;2.00;76.90;;;;;;9177937;19;20011;-74